Terminal Aerodrome Forecast
Issued by NWS Grand Forks, ND

Home | Current Version | Previous Version | Text Only | Print | Product List | Glossary Off
Versions: 1 2 3 4 5 6 7 8 9 10 11 12 13

000
FTUS43 KFGF 231700
TAFGFK
TAF
KGFK 231720Z 2318/2418 24008KT P6SM SKC
     FM240000 18008KT P6SM SCT250
     FM241500 21012KT P6SM BKN250=

USA.gov is the U.S. government's official web portal to all federal, state and local government web resources and services.